Time;durP1;ratioP1;P1;durP2;ratioP2;P2;SDS_P1;SDS_P2;PMS_P1;PMS_P2;Temp;Humidity;BMP_temperature;BMP_pressure;BME280_temperature;BME280_humidity;BME280_pressure;Samples;Min_cycle;Max_cycle;Signal;HPM_P1;HPM_P2
2023/08/20 00:00:11;;;;;;;8.68;2.35;;;21.30;99.90;;;;;;5030333;28;20022;-81
2023/08/20 00:02:39;;;;;;;8.65;2.95;;;21.30;99.90;;;;;;5029547;28;20025;-81
2023/08/20 00:05:05;;;;;;;10.75;2.42;;;21.30;99.90;;;;;;5030605;28;20029;-82
2023/08/20 00:07:32;;;;;;;4.70;1.85;;;21.30;99.90;;;;;;5032942;28;20029;-81
2023/08/20 00:09:58;;;;;;;8.18;2.30;;;21.30;99.90;;;;;;5033630;28;20045;-81
2023/08/20 00:12:25;;;;;;;4.25;1.40;;;21.30;99.90;;;;;;5033860;28;20461;-81
2023/08/20 00:15:05;;;;;;;6.90;1.90;;;21.30;99.90;;;;;;5032562;28;20215;-81
2023/08/20 00:17:35;;;;;;;7.53;2.45;;;21.30;99.90;;;;;;5033850;28;20470;-81
2023/08/20 00:20:07;;;;;;;13.70;2.58;;;21.30;99.90;;;;;;5034007;28;20393;-81
2023/08/20 00:22:34;;;;;;;4.55;1.45;;;21.30;99.90;;;;;;5033101;28;20022;-81
2023/08/20 00:25:00;;;;;;;8.20;2.05;;;22.20;99.90;;;;;;5033402;28;20044;-81
2023/08/20 00:27:25;;;;;;;6.78;1.90;;;21.30;99.90;;;;;;5033529;28;20025;-81
2023/08/20 00:29:51;;;;;;;6.40;2.00;;;21.20;99.90;;;;;;5032587;28;20469;-81
2023/08/20 00:33:12;;;;;;;3.53;1.83;;;21.20;99.90;;;;;;5069317;28;20475;-81
2023/08/20 00:35:37;;;;;;;5.40;1.73;;;21.30;99.90;;;;;;5067287;28;20455;-81
2023/08/20 00:38:03;;;;;;;10.55;2.00;;;21.20;99.90;;;;;;5068861;28;20023;-81
2023/08/20 00:40:30;;;;;;;4.82;1.83;;;21.30;99.90;;;;;;5069241;28;20052;-80
2023/08/20 00:42:56;;;;;;;3.95;1.70;;;21.20;99.90;;;;;;5068218;28;20115;-82
2023/08/20 00:45:22;;;;;;;6.28;2.08;;;21.20;99.90;;;;;;5069242;28;20108;-81
2023/08/20 00:47:49;;;;;;;4.25;1.35;;;21.20;99.90;;;;;;5068630;28;20435;-81
2023/08/20 00:50:15;;;;;;;10.48;2.05;;;21.20;99.90;;;;;;5068227;28;20024;-81
2023/08/20 00:52:41;;;;;;;9.07;1.80;;;21.40;99.90;;;;;;5068824;28;20041;-81
2023/08/20 00:55:09;;;;;;;8.52;1.85;;;21.20;99.90;;;;;;5069165;28;20108;-81
2023/08/20 00:57:39;;;;;;;8.90;2.40;;;21.20;99.90;;;;;;5068013;28;20032;-81
2023/08/20 01:00:09;;;;;;;8.05;1.85;;;21.20;99.90;;;;;;5068811;28;20064;-81
2023/08/20 01:02:35;;;;;;;5.53;1.52;;;21.20;99.90;;;;;;5068601;28;20378;-81
2023/08/20 01:05:04;;;;;;;5.63;1.40;;;21.00;99.90;;;;;;5068353;28;20443;-81
2023/08/20 01:07:37;;;;;;;6.68;1.60;;;21.20;99.90;;;;;;5068559;28;20482;-81
2023/08/20 01:10:03;;;;;;;4.70;1.30;;;21.20;99.90;;;;;;5068548;28;20534;-80
2023/08/20 01:12:31;;;;;;;8.63;1.55;;;21.20;99.90;;;;;;5067432;28;20041;-81
2023/08/20 01:14:56;;;;;;;8.65;1.90;;;21.20;99.90;;;;;;5068350;28;20039;-81
2023/08/20 01:17:22;;;;;;;8.73;2.17;;;21.20;99.90;;;;;;5068438;28;20024;-80
2023/08/20 01:19:47;;;;;;;8.85;2.17;;;21.30;99.90;;;;;;5067304;28;20028;-80
2023/08/20 01:22:44;;;;;;;10.95;2.35;;;21.20;99.90;;;;;;5068531;28;20031;-81
2023/08/20 01:25:28;;;;;;;10.90;2.10;;;21.20;99.90;;;;;;5067785;28;20524;-81
2023/08/20 01:28:13;;;;;;;7.53;1.73;;;21.10;99.90;;;;;;5067991;28;20048;-81
2023/08/20 01:30:39;;;;;;;7.55;2.05;;;21.10;99.90;;;;;;5068059;28;20019;-81
2023/08/20 01:33:07;;;;;;;7.00;2.10;;;21.10;99.90;;;;;;5067053;28;20048;-81
2023/08/20 01:35:32;;;;;;;9.18;2.00;;;21.10;99.90;;;;;;5067976;28;20020;-81
2023/08/20 01:37:58;;;;;;;6.60;2.13;;;21.10;99.90;;;;;;5067878;28;20082;-81
2023/08/20 01:40:23;;;;;;;8.27;2.00;;;21.00;99.90;;;;;;5067680;28;20453;-81
2023/08/20 01:42:49;;;;;;;6.03;1.90;;;21.00;99.90;;;;;;5064142;28;20060;-81
2023/08/20 01:45:14;;;;;;;5.50;1.70;;;21.10;99.90;;;;;;5054888;28;20051;-81
2023/08/20 01:47:40;;;;;;;6.35;2.03;;;21.00;99.90;;;;;;5053740;28;20070;-81
2023/08/20 01:50:06;;;;;;;8.45;1.92;;;21.00;99.90;;;;;;5054726;28;20053;-82
2023/08/20 01:52:32;;;;;;;5.20;2.30;;;21.00;99.90;;;;;;5054038;28;20036;-81
2023/08/20 01:54:58;;;;;;;7.80;1.77;;;20.80;99.90;;;;;;5053488;28;20021;-82
2023/08/20 01:57:23;;;;;;;7.05;1.73;;;20.90;99.90;;;;;;5054479;28;20512;-82
2023/08/20 01:59:49;;;;;;;8.18;2.20;;;20.90;99.90;;;;;;5054238;28;20029;-81
2023/08/20 02:02:14;;;;;;;9.70;2.17;;;20.90;99.90;;;;;;5053938;28;20025;-82
2023/08/20 02:04:40;;;;;;;4.72;1.67;;;21.00;99.90;;;;;;5053980;28;20519;-81
2023/08/20 02:07:06;;;;;;;4.30;2.10;;;20.90;99.90;;;;;;5053644;28;20037;-82
2023/08/20 02:09:31;;;;;;;5.43;2.10;;;20.90;99.90;;;;;;5053936;28;20021;-81
2023/08/20 02:11:57;;;;;;;5.00;1.65;;;20.90;99.90;;;;;;5054166;28;20472;-81
2023/08/20 02:14:23;;;;;;;6.25;1.73;;;21.40;99.90;;;;;;5053954;28;20017;-82
2023/08/20 02:16:48;;;;;;;5.78;2.28;;;20.80;99.90;;;;;;5053693;28;20025;-81
2023/08/20 02:19:14;;;;;;;6.55;1.80;;;20.80;99.90;;;;;;5054090;28;20104;-82
2023/08/20 02:21:40;;;;;;;9.32;2.20;;;20.80;99.90;;;;;;5052983;28;20526;-82
2023/08/20 02:24:06;;;;;;;6.20;2.05;;;20.80;99.90;;;;;;5053871;28;20025;-82
2023/08/20 02:26:31;;;;;;;5.60;1.98;;;20.80;99.90;;;;;;5053720;28;20410;-82
2023/08/20 02:28:57;;;;;;;3.97;2.00;;;20.70;99.90;;;;;;5052941;28;20021;-82
2023/08/20 02:31:23;;;;;;;7.97;1.70;;;20.70;99.90;;;;;;5053714;28;20049;-82
2023/08/20 02:33:49;;;;;;;7.88;2.08;;;20.70;99.90;;;;;;5053551;28;20033;-82
2023/08/20 02:36:14;;;;;;;4.75;1.35;;;20.60;99.90;;;;;;5053076;28;20021;-82
2023/08/20 02:38:40;;;;;;;8.25;2.40;;;20.70;99.90;;;;;;5053161;28;20025;-82
2023/08/20 02:41:05;;;;;;;4.72;2.10;;;21.40;99.90;;;;;;5053791;28;20049;-82
2023/08/20 02:43:31;;;;;;;7.70;3.10;;;20.60;99.90;;;;;;5052771;28;20029;-82
2023/08/20 02:45:57;;;;;;;6.15;2.28;;;20.60;99.90;;;;;;5053441;28;20098;-82
2023/08/20 02:48:26;;;;;;;5.28;2.38;;;20.60;99.90;;;;;;5053526;28;20029;-82
2023/08/20 02:50:54;;;;;;;5.32;3.03;;;20.60;99.90;;;;;;5052321;28;20033;-82
2023/08/20 02:53:19;;;;;;;6.47;2.30;;;20.90;99.90;;;;;;5053477;28;20041;-82
2023/08/20 02:55:46;;;;;;;7.07;2.55;;;20.50;99.90;;;;;;5052263;28;20503;-81
2023/08/20 02:58:11;;;;;;;5.85;2.05;;;20.50;99.90;;;;;;5052777;28;20437;-82
2023/08/20 03:00:37;;;;;;;6.28;2.25;;;20.50;99.90;;;;;;5053012;28;20096;-81
2023/08/20 03:03:05;;;;;;;4.95;2.10;;;20.50;99.90;;;;;;5053263;28;20033;-82
2023/08/20 03:05:32;;;;;;;6.68;1.95;;;20.40;99.90;;;;;;5052341;28;20036;-81
2023/08/20 03:07:57;;;;;;;5.75;2.22;;;20.40;99.90;;;;;;5053053;28;20143;-81
2023/08/20 03:10:23;;;;;;;6.82;1.80;;;20.60;99.90;;;;;;5052464;28;20507;-82
2023/08/20 03:12:49;;;;;;;7.78;2.20;;;20.90;99.90;;;;;;5052605;28;20037;-82
2023/08/20 03:15:15;;;;;;;9.73;2.15;;;20.40;99.90;;;;;;5053091;28;20025;-82
2023/08/20 03:17:40;;;;;;;4.88;2.40;;;20.40;99.90;;;;;;5052013;28;20036;-82
2023/08/20 03:20:07;;;;;;;6.95;2.03;;;20.40;99.90;;;;;;5052766;28;20021;-82
2023/08/20 03:22:33;;;;;;;8.55;2.22;;;20.40;99.90;;;;;;5052611;28;20083;-82
2023/08/20 03:24:58;;;;;;;4.45;1.80;;;20.40;99.90;;;;;;5051935;28;20017;-82
2023/08/20 03:27:24;;;;;;;3.83;1.67;;;20.40;99.90;;;;;;5052909;28;20035;-82
2023/08/20 03:29:49;;;;;;;7.60;3.00;;;20.40;99.90;;;;;;5052328;28;20036;-82
2023/08/20 03:32:15;;;;;;;6.47;1.85;;;20.40;99.90;;;;;;5052274;28;20045;-82
2023/08/20 03:34:41;;;;;;;6.43;2.15;;;20.30;99.90;;;;;;5052144;28;20021;-82
2023/08/20 03:37:06;;;;;;;6.47;2.05;;;20.40;99.90;;;;;;5052536;28;20028;-81
2023/08/20 03:39:32;;;;;;;4.10;1.83;;;20.30;99.90;;;;;;5051828;28;20369;-81
2023/08/20 03:41:57;;;;;;;6.68;2.10;;;20.40;99.90;;;;;;5052464;28;20025;-81
2023/08/20 03:44:23;;;;;;;9.52;2.60;;;20.40;99.90;;;;;;5052620;28;20108;-82
2023/08/20 03:46:49;;;;;;;9.90;2.67;;;20.30;99.90;;;;;;5051387;28;20059;-82
2023/08/20 03:49:15;;;;;;;13.43;3.58;;;20.30;99.90;;;;;;5052503;28;20020;-82
2023/08/20 03:51:42;;;;;;;6.75;2.38;;;20.30;99.90;;;;;;5051980;28;20432;-82
2023/08/20 03:54:08;;;;;;;10.05;2.22;;;20.30;99.90;;;;;;5051461;28;20033;-82
2023/08/20 03:56:34;;;;;;;7.13;2.60;;;20.30;99.90;;;;;;5051960;28;20037;-81
2023/08/20 03:58:59;;;;;;;4.07;1.83;;;20.20;99.90;;;;;;5052158;28;20036;-81
2023/08/20 04:01:25;;;;;;;9.30;2.35;;;20.50;99.90;;;;;;5051784;28;20477;-81
2023/08/20 04:03:50;;;;;;;5.93;1.65;;;20.20;99.90;;;;;;5051695;28;20461;-81
2023/08/20 04:06:16;;;;;;;10.98;2.80;;;20.10;99.90;;;;;;5052171;28;20031;-81
2023/08/20 04:08:42;;;;;;;5.82;1.80;;;20.20;99.90;;;;;;5051207;28;20025;-81
2023/08/20 04:11:08;;;;;;;7.45;2.42;;;20.90;99.90;;;;;;5052307;28;20032;-81
2023/08/20 04:13:33;;;;;;;6.05;2.20;;;20.10;99.90;;;;;;5051832;28;20488;-82
2023/08/20 04:15:59;;;;;;;4.47;1.90;;;20.10;99.90;;;;;;5051152;28;20092;-82
2023/08/20 04:18:25;;;;;;;9.52;3.55;;;20.80;99.90;;;;;;5051981;28;20045;-82
2023/08/20 04:20:52;;;;;;;6.50;2.38;;;20.10;99.90;;;;;;5050669;28;20021;-82
2023/08/20 04:23:18;;;;;;;5.68;2.38;;;20.00;99.90;;;;;;5052076;28;20029;-81
2023/08/20 04:25:44;;;;;;;8.88;2.10;;;20.00;99.90;;;;;;5051615;28;20040;-82
2023/08/20 04:28:11;;;;;;;6.07;2.50;;;20.00;99.90;;;;;;5051211;28;20032;-81
2023/08/20 04:30:37;;;;;;;3.63;1.83;;;20.00;99.90;;;;;;5051461;28;20381;-82
2023/08/20 04:33:03;;;;;;;7.90;2.30;;;20.50;99.90;;;;;;5051474;28;20053;-82
2023/08/20 04:35:28;;;;;;;8.60;2.20;;;20.00;99.90;;;;;;5050878;28;20028;-81
2023/08/20 04:37:54;;;;;;;10.93;2.25;;;20.00;99.90;;;;;;5051755;28;20052;-82
2023/08/20 04:40:20;;;;;;;7.25;2.53;;;20.10;99.90;;;;;;5051846;28;20512;-82
2023/08/20 04:42:45;;;;;;;6.63;2.42;;;20.00;99.90;;;;;;5050681;28;20036;-81
2023/08/20 04:45:11;;;;;;;4.38;2.08;;;20.60;99.90;;;;;;5051595;28;20045;-81
2023/08/20 04:47:37;;;;;;;5.10;2.05;;;19.90;99.90;;;;;;5051312;28;20025;-82
2023/08/20 04:50:06;;;;;;;10.25;3.38;;;19.90;99.90;;;;;;5050932;28;20454;-81
2023/08/20 04:52:33;;;;;;;7.07;2.88;;;19.90;99.90;;;;;;5051675;28;20037;-82
2023/08/20 04:54:58;;;;;;;5.65;2.53;;;19.90;99.90;;;;;;5051637;28;20505;-82
2023/08/20 04:57:24;;;;;;;8.55;3.05;;;19.90;99.90;;;;;;5051069;28;20079;-82
2023/08/20 04:59:49;;;;;;;8.70;2.75;;;20.30;99.90;;;;;;5051091;28;20132;-81
2023/08/20 05:02:15;;;;;;;8.20;2.47;;;19.90;99.90;;;;;;5051533;28;20051;-81
2023/08/20 05:04:41;;;;;;;6.88;3.13;;;19.80;99.90;;;;;;5050658;28;20492;-82
2023/08/20 05:07:06;;;;;;;6.30;2.00;;;19.80;99.90;;;;;;5051742;28;20419;-82
2023/08/20 05:09:33;;;;;;;7.25;2.55;;;19.80;99.90;;;;;;5051179;28;20086;-81
2023/08/20 05:11:58;;;;;;;7.03;2.80;;;19.80;99.90;;;;;;5050570;28;20388;-81
2023/08/20 05:14:24;;;;;;;7.47;3.00;;;19.80;99.90;;;;;;5051451;28;20108;-81
2023/08/20 05:16:50;;;;;;;7.25;2.50;;;19.80;99.90;;;;;;5050897;28;20491;-81
2023/08/20 05:19:15;;;;;;;9.45;2.80;;;19.80;99.90;;;;;;5053202;28;20061;-82
2023/08/20 05:21:41;;;;;;;6.38;2.97;;;19.80;99.90;;;;;;5054974;28;20476;-81
2023/08/20 05:24:06;;;;;;;12.25;3.08;;;19.80;99.90;;;;;;5054456;28;20487;-81
2023/08/20 05:26:32;;;;;;;8.25;3.25;;;19.80;99.90;;;;;;5054767;28;20025;-82
2023/08/20 05:28:58;;;;;;;7.85;2.83;;;19.80;99.90;;;;;;5054867;28;20017;-81
2023/08/20 05:31:23;;;;;;;8.32;2.70;;;19.80;99.90;;;;;;5053952;28;20052;-82
2023/08/20 05:33:49;;;;;;;8.32;2.47;;;19.80;99.90;;;;;;5054543;28;20060;-81
2023/08/20 05:36:14;;;;;;;7.80;2.55;;;19.60;99.90;;;;;;5055128;28;20029;-81
2023/08/20 05:38:42;;;;;;;6.05;2.60;;;19.80;99.90;;;;;;5053635;28;20021;-81
2023/08/20 05:41:09;;;;;;;7.43;2.67;;;19.80;99.90;;;;;;5054994;28;20024;-82
2023/08/20 05:43:36;;;;;;;8.77;2.60;;;19.90;99.90;;;;;;5054381;28;20029;-82
2023/08/20 05:46:02;;;;;;;6.80;2.20;;;20.00;99.90;;;;;;5053878;28;20035;-82
2023/08/20 05:48:28;;;;;;;10.40;2.45;;;19.80;99.90;;;;;;5054956;28;20036;-81
2023/08/20 05:50:54;;;;;;;6.50;2.33;;;19.90;99.90;;;;;;5054540;28;20017;-81
2023/08/20 05:53:19;;;;;;;9.82;2.47;;;19.80;99.90;;;;;;5053915;28;20040;-81
2023/08/20 05:55:45;;;;;;;9.55;2.75;;;19.90;99.90;;;;;;5054261;28;20064;-81
2023/08/20 05:58:11;;;;;;;7.57;2.15;;;20.00;99.90;;;;;;5054463;28;20029;-81
2023/08/20 06:00:36;;;;;;;7.38;2.42;;;19.90;99.90;;;;;;5053112;28;20074;-81
2023/08/20 06:03:02;;;;;;;10.98;2.92;;;19.90;99.90;;;;;;5054162;28;20033;-81
2023/08/20 06:05:28;;;;;;;9.98;2.45;;;19.90;99.90;;;;;;5054704;28;20021;-81
2023/08/20 06:07:53;;;;;;;10.98;2.42;;;19.90;99.90;;;;;;5053374;28;20032;-81
2023/08/20 06:10:19;;;;;;;6.05;1.83;;;19.90;99.90;;;;;;5054346;28;20028;-81
2023/08/20 06:12:44;;;;;;;10.45;2.67;;;19.90;99.90;;;;;;5053869;28;20494;-81
2023/08/20 06:15:10;;;;;;;9.52;3.08;;;19.90;99.90;;;;;;5053354;28;20028;-81
2023/08/20 06:17:36;;;;;;;10.52;2.60;;;20.00;99.90;;;;;;5053977;28;20039;-81
2023/08/20 06:20:05;;;;;;;6.43;2.33;;;19.90;99.90;;;;;;5054211;28;20469;-81
2023/08/20 06:22:31;;;;;;;7.25;2.35;;;19.90;99.90;;;;;;5053168;28;20362;-81
2023/08/20 06:24:57;;;;;;;9.65;2.90;;;19.90;99.90;;;;;;5053869;28;20055;-81
2023/08/20 06:27:23;;;;;;;10.35;2.78;;;19.90;99.90;;;;;;5053239;28;20031;-81
2023/08/20 06:29:49;;;;;;;7.53;2.80;;;19.90;99.90;;;;;;5053398;28;20033;-81
2023/08/20 06:32:14;;;;;;;6.72;2.88;;;20.00;99.90;;;;;;5053769;28;20049;-81
2023/08/20 06:34:40;;;;;;;10.30;2.60;;;20.40;99.90;;;;;;5052914;28;20144;-81
2023/08/20 06:37:05;;;;;;;4.70;2.53;;;20.00;99.90;;;;;;5053773;28;20048;-81
2023/08/20 06:39:31;;;;;;;7.32;2.78;;;19.90;99.90;;;;;;5053343;28;20017;-81
2023/08/20 06:41:57;;;;;;;6.38;3.00;;;20.00;99.90;;;;;;5052718;28;20516;-80
2023/08/20 06:44:22;;;;;;;5.45;2.45;;;20.00;99.90;;;;;;5053493;28;20028;-80
2023/08/20 06:46:48;;;;;;;9.93;3.17;;;20.00;99.90;;;;;;5053370;28;20285;-80
2023/08/20 06:49:13;;;;;;;12.00;3.25;;;20.00;99.90;;;;;;5052870;28;20427;-80
2023/08/20 06:51:39;;;;;;;7.70;2.63;;;20.00;99.90;;;;;;5053195;28;20097;-80
2023/08/20 06:54:08;;;;;;;5.38;2.33;;;20.00;99.90;;;;;;5053144;28;20477;-80
2023/08/20 06:56:33;;;;;;;12.15;2.33;;;20.00;99.90;;;;;;5052445;28;20119;-80
2023/08/20 06:59:01;;;;;;;8.25;3.00;;;20.20;99.90;;;;;;5053197;28;20553;-80
2023/08/20 07:01:27;;;;;;;11.23;2.97;;;20.00;99.90;;;;;;5053366;28;20021;-80
2023/08/20 07:03:52;;;;;;;8.43;2.78;;;20.10;99.90;;;;;;5052112;28;20472;-81
2023/08/20 07:06:18;;;;;;;7.10;2.88;;;20.10;99.90;;;;;;5053333;28;20059;-80
2023/08/20 07:08:44;;;;;;;6.28;2.50;;;20.50;99.90;;;;;;5052896;28;20025;-80
2023/08/20 07:11:09;;;;;;;10.40;3.17;;;20.10;99.90;;;;;;5052266;28;20021;-80
2023/08/20 07:13:35;;;;;;;8.10;3.20;;;20.10;99.90;;;;;;5052700;28;20116;-80
2023/08/20 07:16:01;;;;;;;12.27;3.33;;;20.10;99.90;;;;;;5053086;28;20025;-80
2023/08/20 07:18:27;;;;;;;18.00;3.22;;;20.10;99.90;;;;;;5052343;28;20071;-80
2023/08/20 07:20:52;;;;;;;9.00;2.85;;;20.10;99.90;;;;;;5052590;28;20017;-80
2023/08/20 07:23:18;;;;;;;10.48;2.58;;;20.10;99.90;;;;;;5053250;28;20481;-80
2023/08/20 07:25:48;;;;;;;16.08;3.83;;;20.60;99.90;;;;;;5051786;28;20053;-80
2023/08/20 07:28:14;;;;;;;13.60;2.95;;;20.30;99.90;;;;;;5052564;28;20083;-80
2023/08/20 07:30:39;;;;;;;9.45;2.53;;;20.30;99.90;;;;;;5051502;28;20033;-80
2023/08/20 07:33:06;;;;;;;9.95;4.03;;;20.30;99.90;;;;;;5052097;28;20135;-80
2023/08/20 07:35:32;;;;;;;12.15;2.90;;;20.20;99.90;;;;;;5052335;28;20104;-80
2023/08/20 07:37:58;;;;;;;6.47;2.35;;;20.10;99.90;;;;;;5051832;28;20127;-80
2023/08/20 07:40:23;;;;;;;9.93;2.95;;;20.20;99.90;;;;;;5052307;28;20018;-80
2023/08/20 07:42:50;;;;;;;8.82;2.70;;;20.10;99.90;;;;;;5051672;28;20029;-80
2023/08/20 07:45:16;;;;;;;14.05;2.85;;;20.30;99.90;;;;;;5052045;28;20025;-80
2023/08/20 07:47:42;;;;;;;5.75;2.15;;;20.30;99.90;;;;;;5051947;28;20051;-80
2023/08/20 07:50:07;;;;;;;8.85;2.13;;;20.30;99.90;;;;;;5052417;28;20067;-80
2023/08/20 07:52:33;;;;;;;11.35;3.03;;;20.30;99.90;;;;;;5051286;28;20401;-79
2023/08/20 07:54:59;;;;;;;5.75;2.05;;;20.30;99.90;;;;;;5052078;28;20032;-80
2023/08/20 07:57:24;;;;;;;11.75;1.73;;;20.30;99.90;;;;;;5052342;28;20040;-80
2023/08/20 07:59:50;;;;;;;8.15;2.33;;;20.40;99.90;;;;;;5051324;28;20028;-80
2023/08/20 08:02:16;;;;;;;8.90;2.22;;;20.40;99.90;;;;;;5052525;28;20036;-80
2023/08/20 08:04:42;;;;;;;6.38;2.10;;;20.40;99.90;;;;;;5051673;28;20496;-80
2023/08/20 08:07:10;;;;;;;6.47;1.90;;;20.40;99.90;;;;;;5051218;28;20039;-80
2023/08/20 08:09:35;;;;;;;6.78;2.17;;;20.50;99.90;;;;;;5051549;28;20029;-80
2023/08/20 08:12:02;;;;;;;6.40;1.67;;;20.50;99.90;;;;;;5051742;28;20043;-80
2023/08/20 08:14:28;;;;;;;7.95;1.75;;;20.50;99.90;;;;;;5051257;28;20053;-80
2023/08/20 08:16:54;;;;;;;4.90;1.92;;;21.20;99.90;;;;;;5051700;28;20040;-80
2023/08/20 08:19:20;;;;;;;7.60;2.08;;;20.90;99.90;;;;;;5051856;28;20013;-80
2023/08/20 08:21:46;;;;;;;5.13;1.90;;;20.70;99.90;;;;;;5050514;28;20155;-80
2023/08/20 08:24:13;;;;;;;9.85;2.33;;;21.10;99.90;;;;;;5051683;28;20496;-80
2023/08/20 08:26:39;;;;;;;3.33;1.25;;;21.10;99.90;;;;;;5051187;28;20098;-80
2023/08/20 08:29:05;;;;;;;8.45;2.13;;;20.70;99.90;;;;;;5050745;28;20508;-80
2023/08/20 08:31:31;;;;;;;4.53;1.80;;;20.60;99.90;;;;;;5051113;28;20056;-80
2023/08/20 08:33:57;;;;;;;5.55;1.95;;;20.70;99.90;;;;;;5050575;28;20029;-80
2023/08/20 08:36:24;;;;;;;11.00;2.20;;;20.80;99.90;;;;;;5051700;28;20469;-80
2023/08/20 08:38:53;;;;;;;8.70;2.22;;;20.80;99.90;;;;;;5051018;28;20496;-80
2023/08/20 08:41:23;;;;;;;3.78;1.95;;;20.80;99.90;;;;;;5050668;28;20025;-82
2023/08/20 08:43:49;;;;;;;8.68;2.72;;;20.80;99.90;;;;;;5051041;28;20401;-82
2023/08/20 08:46:16;;;;;;;6.93;1.90;;;20.90;99.90;;;;;;5051298;28;20411;-82
2023/08/20 08:48:43;;;;;;;16.70;2.25;;;21.00;99.90;;;;;;5050433;28;20024;-81
2023/08/20 08:51:09;;;;;;;4.50;2.15;;;21.00;99.90;;;;;;5051476;28;20028;-82
2023/08/20 08:53:35;;;;;;;8.40;1.92;;;21.10;99.90;;;;;;5052803;28;20044;-81
2023/08/20 08:56:02;;;;;;;9.30;2.65;;;21.10;99.90;;;;;;5054707;28;20515;-81
2023/08/20 08:58:28;;;;;;;8.32;1.63;;;22.00;99.90;;;;;;5055729;28;20040;-81
2023/08/20 09:00:54;;;;;;;5.18;1.77;;;21.30;99.90;;;;;;5055340;28;20400;-81
2023/08/20 09:03:20;;;;;;;8.43;2.53;;;21.20;99.90;;;;;;5054715;28;20020;-81
2023/08/20 09:05:53;;;;;;;6.60;2.53;;;21.20;99.90;;;;;;5054863;28;20040;-81
2023/08/20 09:08:26;;;;;;;4.88;1.88;;;21.20;99.90;;;;;;5055182;28;20024;-81
2023/08/20 09:10:54;;;;;;;9.38;2.53;;;21.20;99.90;;;;;;5054211;28;20024;-81
2023/08/20 09:13:36;;;;;;;5.00;1.83;;;21.00;99.90;;;;;;5055104;28;20393;-81
2023/08/20 09:16:10;;;;;;;7.60;1.42;;;21.20;99.90;;;;;;5055233;28;20588;-81
2023/08/20 09:18:45;;;;;;;5.93;2.22;;;21.20;99.90;;;;;;5054756;28;20021;-82
2023/08/20 09:21:12;;;;;;;9.18;2.28;;;21.30;99.90;;;;;;5054891;28;20020;-82
2023/08/20 09:23:38;;;;;;;4.05;2.00;;;21.30;99.90;;;;;;5054209;28;20021;-81
2023/08/20 09:26:06;;;;;;;4.68;1.05;;;21.30;99.90;;;;;;5055084;28;20071;-81
2023/08/20 09:28:43;;;;;;;5.22;1.42;;;21.40;99.90;;;;;;5054818;28;20028;-81
2023/08/20 09:31:08;;;;;;;4.30;1.55;;;21.40;99.90;;;;;;5053548;28;20041;-82
2023/08/20 09:33:34;;;;;;;3.90;1.08;;;21.50;99.90;;;;;;5055287;28;20101;-82
2023/08/20 09:35:59;;;;;;;5.57;1.08;;;21.60;99.90;;;;;;5054670;28;20024;-82
2023/08/20 09:38:25;;;;;;;3.45;1.13;;;21.60;99.90;;;;;;5053973;28;20040;-81
2023/08/20 09:40:55;;;;;;;3.15;1.17;;;21.60;99.90;;;;;;5054254;28;20151;-81
2023/08/20 09:43:22;;;;;;;;;;;21.80;99.90;;;;;;5055174;28;20139;-81
2023/08/20 09:45:49;;;;;;;6.10;1.52;;;21.60;99.90;;;;;;5053469;28;19911;-81
2023/08/20 09:48:20;;;;;;;5.30;1.45;;;21.70;99.90;;;;;;5054769;28;20071;-81
2023/08/20 09:50:47;;;;;;;4.78;1.38;;;21.70;99.90;;;;;;5054404;28;20388;-81
2023/08/20 09:53:30;;;;;;;3.20;1.40;;;21.70;99.90;;;;;;5053705;28;20041;-81
2023/08/20 09:56:08;;;;;;;5.88;1.27;;;22.10;99.90;;;;;;5054361;28;20084;-81
2023/08/20 09:58:34;;;;;;;5.50;1.13;;;21.80;99.90;;;;;;5053834;28;20025;-81
2023/08/20 10:01:00;;;;;;;7.25;2.38;;;21.70;99.90;;;;;;5054411;28;20029;-82
2023/08/20 10:03:26;;;;;;;4.18;1.15;;;21.90;99.90;;;;;;5054136;28;20017;-82
2023/08/20 10:05:53;;;;;;;5.55;1.48;;;21.80;99.90;;;;;;5052883;28;20032;-81
2023/08/20 10:08:20;;;;;;;6.97;2.42;;;21.80;99.90;;;;;;5054137;28;20050;-82
2023/08/20 10:10:46;;;;;;;2.30;0.93;;;21.90;99.90;;;;;;5053699;28;20029;-82
2023/08/20 10:13:14;;;;;;;6.45;1.80;;;21.90;99.90;;;;;;5053351;28;20033;-82
2023/08/20 10:15:40;;;;;;;2.50;1.30;;;21.90;99.90;;;;;;5053747;28;20480;-81
2023/08/20 10:18:08;;;;;;;2.65;1.20;;;21.90;99.90;;;;;;5053748;28;20116;-82
2023/08/20 10:20:34;;;;;;;3.13;1.10;;;22.00;99.90;;;;;;5052880;28;20151;-81
2023/08/20 10:23:03;;;;;;;5.25;1.67;;;22.00;99.90;;;;;;5053562;28;20494;-81
2023/08/20 10:25:30;;;;;;;6.00;1.33;;;22.10;99.90;;;;;;5053545;28;20048;-81
2023/08/20 10:28:13;;;;;;;5.55;1.15;;;22.30;99.90;;;;;;5053158;28;20059;-82
2023/08/20 10:30:59;;;;;;;4.85;0.90;;;22.10;99.90;;;;;;5053660;28;20106;-81
2023/08/20 10:33:24;;;;;;;5.60;1.40;;;22.10;99.90;;;;;;5053473;28;20099;-82
2023/08/20 10:35:50;;;;;;;3.40;1.20;;;22.10;99.90;;;;;;5052696;28;20473;-82
2023/08/20 10:38:17;;;;;;;4.20;1.40;;;22.10;99.90;;;;;;5053727;28;20029;-81
2023/08/20 10:40:55;;;;;;;7.03;1.98;;;22.10;99.90;;;;;;5052990;28;20100;-82
2023/08/20 10:43:34;;;;;;;3.53;0.88;;;22.20;99.90;;;;;;5053517;28;20432;-81
2023/08/20 10:46:06;;;;;;;6.97;1.40;;;22.30;99.90;;;;;;5053292;28;20060;-81
2023/08/20 10:48:34;;;;;;;5.97;1.52;;;22.30;99.90;;;;;;5052841;28;20071;-81
2023/08/20 10:51:06;;;;;;;3.80;1.63;;;22.40;99.90;;;;;;5053177;28;20036;-81
2023/08/20 10:53:32;;;;;;;4.10;1.45;;;22.40;99.90;;;;;;5053070;28;20037;-81
2023/08/20 10:56:17;;;;;;;4.78;1.35;;;22.40;99.90;;;;;;5052410;28;20135;-81
2023/08/20 10:58:45;;;;;;;4.13;1.10;;;22.40;99.90;;;;;;5052939;28;20036;-81
2023/08/20 11:01:15;;;;;;;5.10;1.52;;;22.50;99.90;;;;;;5053168;28;20610;-81
2023/08/20 11:03:44;;;;;;;10.10;5.43;;;22.50;99.90;;;;;;5052057;28;20142;-81
2023/08/20 11:06:10;;;;;;;7.38;1.67;;;22.50;99.90;;;;;;5053120;28;20115;-81
2023/08/20 11:08:37;;;;;;;5.13;1.48;;;22.50;99.90;;;;;;5052778;28;20039;-81
2023/08/20 11:11:03;;;;;;;3.70;1.70;;;22.40;99.90;;;;;;5052692;28;20025;-81
2023/08/20 11:13:30;;;;;;;5.53;1.67;;;22.40;99.90;;;;;;5052844;28;20039;-81
2023/08/20 11:15:55;;;;;;;7.53;1.70;;;22.50;99.90;;;;;;5051353;28;20118;-81
2023/08/20 11:18:21;;;;;;;6.30;1.88;;;22.50;99.90;;;;;;5052815;28;20071;-81
2023/08/20 11:20:47;;;;;;;4.93;1.63;;;22.50;99.90;;;;;;5052430;28;20376;-81
2023/08/20 11:23:13;;;;;;;6.57;1.55;;;22.60;99.90;;;;;;5052216;28;20427;-81
2023/08/20 11:25:43;;;;;;;4.28;1.33;;;22.60;99.90;;;;;;5052438;28;20083;-81
2023/08/20 11:28:09;;;;;;;4.40;2.35;;;22.60;99.90;;;;;;5052652;28;20025;-81
2023/08/20 11:30:35;;;;;;;3.45;1.65;;;22.60;99.90;;;;;;5051652;28;20037;-81
2023/08/20 11:33:00;;;;;;;5.97;1.73;;;22.60;99.90;;;;;;5052388;28;20100;-81
2023/08/20 11:35:26;;;;;;;6.35;2.03;;;22.60;99.90;;;;;;5052609;28;20484;-81
2023/08/20 11:37:52;;;;;;;6.38;1.90;;;22.70;99.90;;;;;;5051460;28;20048;-82
2023/08/20 11:40:21;;;;;;;6.50;1.83;;;22.70;99.90;;;;;;5052540;28;20066;-81
2023/08/20 11:42:48;;;;;;;5.47;1.60;;;22.70;99.90;;;;;;5052014;28;20468;-82
2023/08/20 11:45:13;;;;;;;7.95;2.38;;;22.70;99.90;;;;;;5051799;28;20033;-81
2023/08/20 11:47:40;;;;;;;4.63;1.80;;;22.80;99.90;;;;;;5051955;28;20067;-81
2023/08/20 11:50:07;;;;;;;6.63;1.75;;;23.00;99.90;;;;;;5052323;28;20071;-81
2023/08/20 11:52:33;;;;;;;7.90;1.70;;;23.00;99.90;;;;;;5055102;28;20077;-82
2023/08/20 11:55:00;;;;;;;3.15;1.75;;;23.50;99.90;;;;;;5051870;28;20025;-82
2023/08/20 11:57:26;;;;;;;1.85;0.93;;;23.10;99.90;;;;;;5052471;28;20108;-82
2023/08/20 11:59:51;;;;;;;4.25;1.13;;;23.10;99.90;;;;;;5051160;28;20104;-82
2023/08/20 12:02:27;;;;;;;2.63;1.15;;;23.10;99.90;;;;;;5052023;28;20486;-82
2023/08/20 12:04:59;;;;;;;3.60;1.48;;;23.20;99.90;;;;;;5051510;28;20053;-82
2023/08/20 12:07:26;;;;;;;3.17;1.30;;;23.20;99.90;;;;;;5051815;28;20032;-82
2023/08/20 12:09:53;;;;;;;1.90;0.98;;;23.30;99.90;;;;;;5051494;28;20029;-82
2023/08/20 12:12:20;;;;;;;4.28;1.25;;;23.30;99.90;;;;;;5051142;28;20037;-82
2023/08/20 12:14:46;;;;;;;4.15;0.88;;;23.30;99.90;;;;;;5051526;28;20025;-82
2023/08/20 12:17:12;;;;;;;4.30;1.30;;;23.50;99.90;;;;;;5051583;28;20040;-82
2023/08/20 12:19:38;;;;;;;7.75;2.35;;;23.50;99.90;;;;;;5050613;28;20024;-82
2023/08/20 12:22:03;;;;;;;3.83;1.30;;;23.50;99.90;;;;;;5051595;28;20027;-82
2023/08/20 12:24:29;;;;;;;3.17;1.27;;;23.60;99.90;;;;;;5051349;28;20029;-82
2023/08/20 12:26:55;;;;;;;3.60;1.30;;;23.60;99.90;;;;;;5050780;28;20032;-82
2023/08/20 12:29:21;;;;;;;4.32;1.25;;;23.70;99.90;;;;;;5051569;28;20016;-82
2023/08/20 12:31:46;;;;;;;4.45;1.13;;;23.80;99.90;;;;;;5050985;28;20055;-83
2023/08/20 12:34:12;;;;;;;5.68;1.20;;;23.80;99.90;;;;;;5050951;28;20483;-82
2023/08/20 12:36:37;;;;;;;6.38;1.60;;;23.80;99.90;;;;;;5051042;28;20037;-82
2023/08/20 12:39:04;;;;;;;4.43;1.65;;;23.70;99.90;;;;;;5051705;28;20037;-83
2023/08/20 12:41:30;;;;;;;8.05;1.80;;;23.80;99.90;;;;;;5050839;28;20033;-82
2023/08/20 12:43:56;;;;;;;5.63;1.35;;;23.60;99.90;;;;;;5051340;28;20550;-82